Egyptian Hills, Illinois
Current Conditions -  °F | °C
As of 11:15 PM on Friday 28 Nov 2014 (Local Time) from KMWA Reporting Station
Clear Clear  
Wind Chill: 35°   Ceiling: Unl
Heat Index: 43°   Visibility: 10mi
Dew Point: 28°   Wind: 16mph
Humidity: 57%   Direction: 190°S
Pressure: 30"   Gusts: NA
Location:  37.6398°N, 88.8751°W
Report Text: KMWA 290515Z AUTO 19014KT 10SM CLR 06/M02 A3000 RMK AO2
Loading
Personal Weather Stations






























Interactive Weather Map New forecast layout! Learn more

10-Day Weather Forecast

Advertisements
Track Severe Weather on mobile